Decoded Metar for EPKK (KRAKOW in POLAND) (IATA:KRK) | Meteo·Mobile Aviation Weather
aviador You're here:

EPKK Decoded Metar

KRAKOW in POLAND
Report Time2018-09-18 13:30:00
UTC Time2018-09-18 14:01:16
Flight Rules vfr VFR
Wind190° at 03 kt
W.Decomp.*RWY 25: 1.4 kt HW 2.7 kt LCW
W.Rank190° ranks 25
Current wind is below 190° avg. (3.7)
Visibility9999 m
Phenomena:N/A
Clouds:N/A
Expected CloudBase > 5,600 ft AGL from Temp-Dew spread
CeilingNone
Temp26°C (ISA +13)
Dew Point12°C (42% RH)
AAT25.6°C
QNH1020 hPa
Density Alt2,182 ft
Elevation778 ft
Report Wrong Elevation
Raw Report
EPKK 181330Z 19003KT 140V230 CAVOK 26/12 Q1020=

Extra information for EPKK:More info

Metar Taf Metar & Taf Last 4 Metars F.Rules Stats Wind Profile Meteogram Temp Stats Airport Information Weather charts Add Link Nearby VenuesMetar ALERT Operation Metar Decoded Social comments